Terminal Aerodrome Forecast
Issued by NWS Jackson, MS

Home | Current Version | Previous Version | Text Only | Print | Product List | Glossary On
Versions: 1 2 3 4 5 6 7 8 9 10 11 12 13 14 15 16 17 18 19 20 21 22 23 24 25 26 27 28 29
000
FTUS44 KMEG 181130
TAFTUP
TAF
KTUP 181130Z 1812/1912 00000KT 1/4SM FG VV003
     FM181300 00000KT 3/4SM BR OVC005
     FM181400 00000KT 2SM BR OVC007
     FM181600 13004KT P6SM OVC008
     FM182000 16010KT P6SM SCT010 BKN040
     FM190300 17010G20KT P6SM VCSH SCT010 BKN030 WS020/22050KT
      TEMPO 1908/1912 VRB10G25KT 4SM -TSRA OVC008CB=

USA.gov is the U.S. government's official web portal to all federal, state and local government web resources and services.